Time;durP1;ratioP1;P1;durP2;ratioP2;P2;SDS_P1;SDS_P2;PMS_P1;PMS_P2;Temp;Humidity;BMP_temperature;BMP_pressure;BME280_temperature;BME280_humidity;BME280_pressure;Samples;Min_cycle;Max_cycle;Signal;HPM_P1;HPM_P2
2023/03/26 00:01:12;;;;;;;;;;;15.70;53.10;;;;;;5073672;28;19927;-73
2023/03/26 00:03:39;;;;;;;;;;;15.70;53.10;;;;;;5073927;28;19920;-72
2023/03/26 00:06:09;;;;;;;;;;;15.70;53.20;;;;;;5075089;28;20283;-73
2023/03/26 00:08:38;;;;;;;;;;;15.70;53.20;;;;;;5075033;28;19924;-73
2023/03/26 00:11:05;;;;;;;;;;;15.60;53.10;;;;;;5073826;28;19921;-73
2023/03/26 00:13:31;;;;;;;;;;;15.70;53.10;;;;;;5073569;28;19960;-73
2023/03/26 00:15:56;;;;;;;;;;;15.70;53.20;;;;;;5073622;28;19920;-73
2023/03/26 00:18:28;;;;;;;;;;;15.70;53.20;;;;;;5073486;28;19927;-72
2023/03/26 00:20:54;;;;;;;;;;;15.70;53.20;;;;;;5073217;28;19959;-73
2023/03/26 00:23:20;;;;;;;;;;;15.70;53.20;;;;;;5073553;28;19956;-73
2023/03/26 00:25:49;;;;;;;;;;;15.70;53.10;;;;;;5074517;28;19924;-72
2023/03/26 00:28:16;;;;;;;;;;;15.70;53.10;;;;;;5073505;28;19921;-73
2023/03/26 00:30:41;;;;;;;;;;;15.70;53.10;;;;;;5073427;28;19924;-73
2023/03/26 00:33:07;;;;;;;;;;;15.60;53.10;;;;;;5074600;28;20023;-72
2023/03/26 00:35:35;;;;;;;;;;;15.60;53.10;;;;;;5073270;28;19921;-73
2023/03/26 00:38:01;;;;;;;;;;;15.60;53.10;;;;;;5074147;28;20383;-72
2023/03/26 00:40:28;;;;;;;;;;;15.60;53.10;;;;;;5074041;28;20054;-72
2023/03/26 00:42:54;;;;;;;;;;;15.60;53.10;;;;;;5072963;28;19929;-73
2023/03/26 00:45:21;;;;;;;;;;;15.60;53.80;;;;;;5073072;28;19921;-73
2023/03/26 00:47:46;;;;;;;;;;;15.60;53.10;;;;;;5072976;28;19963;-73
2023/03/26 00:50:14;;;;;;;;;;;15.60;53.10;;;;;;5072927;28;19960;-73
2023/03/26 00:52:42;;;;;;;;;;;15.60;53.10;;;;;;5073069;28;19920;-73
2023/03/26 00:55:08;;;;;;;;;;;15.60;53.10;;;;;;5072936;28;19920;-76
2023/03/26 00:57:33;;;;;;;;;;;15.60;53.10;;;;;;5072606;28;20330;-73
2023/03/26 01:00:07;;;;;;;;;;;15.60;53.00;;;;;;5072491;28;19929;-73
2023/03/26 01:02:36;;;;;;;;;;;15.60;53.10;;;;;;5072477;28;19970;-73
2023/03/26 01:05:24;;;;;;;;;;;15.60;53.10;;;;;;5072861;28;19921;-75
2023/03/26 01:07:50;;;;;;;;;;;15.60;53.10;;;;;;5073688;28;20383;-74
2023/03/26 01:10:16;;;;;;;;;;;15.60;53.10;;;;;;5073616;28;19940;-73
2023/03/26 01:12:42;;;;;;;;;;;15.60;53.10;;;;;;5072297;28;20298;-73
2023/03/26 01:15:12;;;;;;;;;;;15.60;53.10;;;;;;5072323;28;20045;-75
2023/03/26 01:17:38;;;;;;;;;;;15.40;53.00;;;;;;5072171;28;19970;-73
2023/03/26 01:20:12;;;;;;;;;;;15.60;53.10;;;;;;5072234;28;20023;-79
2023/03/26 01:22:39;;;;;;;;;;;15.60;53.00;;;;;;5072040;28;19920;-79
2023/03/26 01:25:06;;;;;;;;;;;15.60;53.10;;;;;;5073317;28;20351;-79
2023/03/26 01:33:15;;;;;;;;;;;15.60;53.00;;;;;;5089919;28;19919;-76
2023/03/26 01:36:00;;;;;;;;;;;15.50;52.90;;;;;;5089670;28;20058;-73
2023/03/26 01:41:16;;;;;;;;;;;15.50;53.10;;;;;;5110337;27;19912;-75
2023/03/26 01:43:48;;;;;;;;;;;15.50;53.00;;;;;;5108929;28;19931;-77
2023/03/26 01:46:15;;;;;;;;;;;15.50;53.00;;;;;;5109265;28;20022;-80
2023/03/26 01:48:42;;;;;;;;;;;15.50;53.00;;;;;;5108674;28;19920;-74
2023/03/26 01:51:09;;;;;;;;;;;15.50;53.00;;;;;;5108827;28;20383;-72
2023/03/26 01:53:37;;;;;;;;;;;15.50;53.00;;;;;;5143065;27;19920;-72
2023/03/26 02:04:22;;;;;;;;;;;15.50;52.90;;;;;;5130769;27;20011;-73
2023/03/26 02:06:51;;;;;;;;;;;15.50;53.00;;;;;;5129456;28;19966;-72
2023/03/26 02:09:21;;;;;;;;;;;15.40;52.90;;;;;;5129577;28;20022;-72
2023/03/26 02:11:47;;;;;;;;;;;15.50;53.00;;;;;;5129378;28;19920;-73
2023/03/26 02:14:13;;;;;;;;;;;15.40;52.90;;;;;;5129590;28;19919;-72
2023/03/26 02:16:39;;;;;;;;;;;15.50;52.90;;;;;;5129612;28;20363;-72
2023/03/26 02:19:08;;;;;;;;;;;15.40;52.90;;;;;;5129185;28;19941;-73
2023/03/26 02:21:34;;;;;;;;;;;15.50;53.00;;;;;;5129169;28;19920;-72
2023/03/26 02:24:02;;;;;;;;;;;15.50;53.00;;;;;;5128860;28;19988;-73
2023/03/26 02:26:29;;;;;;;;;;;15.50;53.00;;;;;;5129107;28;19919;-72
2023/03/26 02:28:55;;;;;;;;;;;15.40;52.90;;;;;;5129259;28;19920;-73
2023/03/26 02:31:21;;;;;;;;;;;15.40;52.90;;;;;;5129190;28;20011;-72
2023/03/26 02:33:48;;;;;;;;;;;15.40;52.90;;;;;;5130276;27;19966;-72
2023/03/26 02:36:14;;;;;;;;;;;15.50;52.90;;;;;;5128896;28;19919;-73
2023/03/26 02:38:40;;;;;;;;;;;15.40;52.90;;;;;;5130049;27;19931;-72
2023/03/26 02:41:06;;;;;;;;;;;15.40;52.90;;;;;;5129220;28;19919;-72
2023/03/26 02:43:31;;;;;;;;;;;15.40;52.90;;;;;;5128711;28;20433;-72
2023/03/26 02:45:57;;;;;;;;;;;15.40;52.90;;;;;;5130290;27;19976;-73
2023/03/26 02:48:22;;;;;;;;;;;15.50;53.00;;;;;;5128623;28;19920;-72
2023/03/26 02:50:49;;;;;;;;;;;15.40;52.90;;;;;;5128601;28;19985;-74
2023/03/26 02:53:15;;;;;;;;;;;15.40;52.90;;;;;;5129122;28;19958;-73
2023/03/26 02:55:40;;;;;;;;;;;15.40;52.90;;;;;;5128404;28;19924;-72
2023/03/26 02:58:06;;;;;;;;;;;15.40;52.90;;;;;;5128830;28;20319;-72
2023/03/26 03:00:33;;;;;;;;;;;15.40;52.90;;;;;;5128303;28;19926;-72
2023/03/26 03:02:58;;;;;;;;;;;15.40;52.90;;;;;;5128246;28;19955;-72
2023/03/26 03:05:25;;;;;;;;;;;15.40;52.90;;;;;;5128543;28;19970;-72
2023/03/26 03:07:51;;;;;;;;;;;15.40;52.90;;;;;;5129671;27;20378;-73
2023/03/26 03:10:20;;;;;;;;;;;15.30;52.90;;;;;;5128470;28;20050;-73
2023/03/26 03:12:46;;;;;;;;;;;15.40;53.00;;;;;;5128546;28;19923;-73
2023/03/26 03:15:12;;;;;;;;;;;15.40;53.00;;;;;;5117849;27;20343;-72
2023/03/26 03:17:39;;;;;;;;;;;15.40;52.90;;;;;;5114467;28;19919;-72
2023/03/26 03:20:08;;;;;;;;;;;15.30;52.90;;;;;;5114672;28;19920;-73
2023/03/26 03:22:34;;;;;;;;;;;15.40;53.00;;;;;;5115566;27;20268;-73
2023/03/26 03:24:59;;;;;;;;;;;15.30;52.90;;;;;;5114266;28;19924;-74
2023/03/26 03:27:25;;;;;;;;;;;15.30;52.90;;;;;;5114572;28;19920;-72
2023/03/26 03:29:52;;;;;;;;;;;15.30;52.90;;;;;;5114238;28;20032;-72
2023/03/26 03:32:18;;;;;;;;;;;15.30;52.90;;;;;;5114196;28;20418;-72
2023/03/26 03:34:43;;;;;;;;;;;15.30;52.90;;;;;;5114428;28;19919;-72
2023/03/26 03:37:09;;;;;;;;;;;15.30;52.90;;;;;;5114037;28;19919;-72
2023/03/26 03:39:34;;;;;;;;;;;15.30;52.90;;;;;;5115240;28;19926;-72
2023/03/26 03:42:00;;;;;;;;;;;15.30;52.90;;;;;;5114153;28;20286;-72
2023/03/26 03:44:26;;;;;;;;;;;15.30;52.90;;;;;;5112285;28;20283;-72
2023/03/26 03:46:54;;;;;;;;;;;15.20;52.80;;;;;;5093500;28;19927;-73
2023/03/26 03:49:22;;;;;;;;;;;15.30;52.90;;;;;;5093424;28;20003;-72
2023/03/26 03:51:48;;;;;;;;;;;15.30;52.90;;;;;;5093358;28;20371;-73
2023/03/26 03:54:13;;;;;;;;;;;15.30;52.90;;;;;;5093393;28;19927;-72
2023/03/26 03:56:39;;;;;;;;;;;15.20;52.80;;;;;;5093642;28;19973;-73
2023/03/26 03:59:04;;;;;;;;;;;15.20;52.80;;;;;;5093253;28;20011;-72
2023/03/26 04:01:30;;;;;;;;;;;15.20;52.80;;;;;;5093656;28;19924;-72
2023/03/26 04:03:56;;;;;;;;;;;15.20;52.90;;;;;;5092931;28;19924;-72
2023/03/26 04:06:24;;;;;;;;;;;15.20;52.90;;;;;;5093070;28;20375;-72
2023/03/26 04:08:50;;;;;;;;;;;15.20;52.90;;;;;;5092989;28;20299;-73
2023/03/26 04:11:15;;;;;;;;;;;15.20;52.90;;;;;;5093327;28;19959;-73
2023/03/26 04:13:41;;;;;;;;;;;15.20;52.90;;;;;;5092891;28;20414;-73
2023/03/26 04:16:07;;;;;;;;;;;15.20;52.90;;;;;;5093258;28;19970;-72
2023/03/26 04:18:32;;;;;;;;;;;15.20;52.90;;;;;;5092841;28;20391;-72
2023/03/26 04:21:01;;;;;;;;;;;15.20;52.80;;;;;;5092895;28;19920;-73
2023/03/26 04:23:28;;;;;;;;;;;15.20;52.90;;;;;;5092682;28;19993;-73
2023/03/26 04:25:54;;;;;;;;;;;15.20;52.90;;;;;;5092035;28;19924;-72
2023/03/26 04:28:29;;;;;;;;;;;15.20;52.90;;;;;;5093007;28;20023;-72
2023/03/26 04:30:55;;;;;;;;;;;15.10;52.90;;;;;;5092680;28;19927;-73
2023/03/26 04:33:23;;;;;;;;;;;15.10;52.80;;;;;;5092526;28;19920;-72
2023/03/26 04:35:49;;;;;;;;;;;15.20;52.90;;;;;;5092586;28;19924;-72
2023/03/26 04:38:16;;;;;;;;;;;15.10;52.80;;;;;;5092352;28;20011;-72
2023/03/26 04:40:42;;;;;;;;;;;15.10;52.80;;;;;;5092825;28;20347;-72
2023/03/26 04:43:11;;;;;;;;;;;15.20;52.90;;;;;;5092669;28;20011;-72
2023/03/26 04:45:37;;;;;;;;;;;15.10;52.90;;;;;;5093713;28;20295;-72
2023/03/26 04:48:02;;;;;;;;;;;15.10;52.80;;;;;;5092275;28;19950;-73
2023/03/26 04:50:28;;;;;;;;;;;15.10;52.80;;;;;;5092175;28;20324;-72
2023/03/26 04:52:55;;;;;;;;;;;15.10;52.80;;;;;;5092126;28;19965;-72
2023/03/26 04:55:25;;;;;;;;;;;15.10;52.80;;;;;;5093463;28;19985;-72
2023/03/26 04:57:55;;;;;;;;;;;15.10;53.60;;;;;;5093361;28;20391;-72
2023/03/26 05:00:21;;;;;;;;;;;15.10;52.80;;;;;;5091968;28;19931;-72
2023/03/26 05:02:49;;;;;;;;;;;15.10;52.80;;;;;;5091754;28;19924;-72
2023/03/26 05:05:16;;;;;;;;;;;15.10;52.90;;;;;;5092268;28;20421;-72
2023/03/26 05:07:42;;;;;;;;;;;15.10;52.80;;;;;;5093213;28;19920;-73
2023/03/26 05:10:08;;;;;;;;;;;15.10;52.80;;;;;;5093125;28;19935;-73
2023/03/26 05:12:33;;;;;;;;;;;15.10;52.80;;;;;;5093353;28;20010;-73
2023/03/26 05:14:59;;;;;;;;;;;15.10;52.80;;;;;;5092172;28;19962;-73
2023/03/26 05:17:25;;;;;;;;;;;15.10;52.90;;;;;;5091762;28;20290;-73
2023/03/26 05:19:51;;;;;;;;;;;15.10;52.90;;;;;;5092016;28;19981;-73
2023/03/26 05:22:17;;;;;;;;;;;15.10;52.80;;;;;;5093104;28;20037;-73
2023/03/26 05:24:42;;;;;;;;;;;15.10;52.90;;;;;;5091576;28;19959;-72
2023/03/26 05:27:12;;;;;;;;;;;15.10;52.80;;;;;;5092016;28;19967;-73
2023/03/26 05:29:38;;;;;;;;;;;15.10;52.90;;;;;;5091560;28;19920;-73
2023/03/26 05:32:03;;;;;;;;;;;15.10;52.90;;;;;;5091899;28;19985;-73
2023/03/26 05:34:29;;;;;;;;;;;15.10;52.90;;;;;;5091724;28;20364;-78
2023/03/26 05:36:55;;;;;;;;;;;15.10;52.90;;;;;;5091208;28;20391;-72
2023/03/26 05:39:26;;;;;;;;;;;15.10;52.90;;;;;;5093238;28;19967;-72
2023/03/26 05:41:52;;;;;;;;;;;15.10;52.90;;;;;;5091710;28;19920;-73
2023/03/26 05:44:17;;;;;;;;;;;15.00;53.60;;;;;;5091471;28;20299;-78
2023/03/26 05:46:43;;;;;;;;;;;15.10;52.90;;;;;;5091262;28;20336;-74
2023/03/26 05:49:08;;;;;;;;;;;15.10;52.90;;;;;;5081703;28;19924;-75
2023/03/26 05:51:34;;;;;;;;;;;15.10;52.80;;;;;;5111615;28;19955;-73
2023/03/26 05:54:00;;;;;;;;;;;15.00;52.80;;;;;;5111891;28;19938;-77
2023/03/26 05:56:25;;;;;;;;;;;15.10;52.90;;;;;;5111873;28;19919;-78
2023/03/26 05:58:51;;;;;;;;;;;15.10;52.90;;;;;;5111559;28;20382;-74
2023/03/26 06:01:24;;;;;;;;;;;15.10;52.80;;;;;;5111167;28;19920;-73
2023/03/26 06:03:50;;;;;;;;;;;15.10;52.80;;;;;;5111341;28;19924;-80
2023/03/26 06:06:17;;;;;;;;;;;15.10;52.90;;;;;;5111400;28;20408;-79
2023/03/26 06:08:45;;;;;;;;;;;15.10;52.80;;;;;;5111741;28;19963;-78
2023/03/26 06:11:11;;;;;;;;;;;15.00;52.80;;;;;;5111379;28;19924;-73
2023/03/26 06:13:37;;;;;;;;;;;15.10;52.90;;;;;;5111485;28;19924;-79
2023/03/26 06:16:03;;;;;;;;;;;15.10;52.80;;;;;;5111679;28;20379;-72
2023/03/26 06:18:29;;;;;;;;;;;15.10;52.80;;;;;;5111460;28;19920;-73
2023/03/26 06:20:54;;;;;;;;;;;15.00;52.80;;;;;;5111382;28;19920;-73
2023/03/26 06:23:21;;;;;;;;;;;15.00;52.80;;;;;;5111294;28;19935;-73
2023/03/26 06:25:47;;;;;;;;;;;15.00;52.80;;;;;;5111326;28;19919;-74
2023/03/26 06:28:13;;;;;;;;;;;15.00;52.80;;;;;;5111232;28;19920;-76
2023/03/26 06:30:39;;;;;;;;;;;15.00;52.80;;;;;;5112722;28;19927;-73
2023/03/26 06:33:07;;;;;;;;;;;15.00;52.80;;;;;;5112403;28;19926;-73
2023/03/26 06:35:33;;;;;;;;;;;15.00;52.80;;;;;;5111506;28;19944;-75
2023/03/26 06:37:58;;;;;;;;;;;15.00;52.80;;;;;;5111680;28;20379;-72
2023/03/26 06:40:24;;;;;;;;;;;15.10;52.90;;;;;;5112706;28;19924;-78
2023/03/26 06:42:50;;;;;;;;;;;15.00;52.80;;;;;;5112491;28;20309;-77
2023/03/26 06:45:16;;;;;;;;;;;15.00;52.80;;;;;;5111510;28;20376;-73
2023/03/26 06:47:41;;;;;;;;;;;15.00;52.80;;;;;;5111015;28;20404;-78
2023/03/26 06:50:07;;;;;;;;;;;15.00;52.80;;;;;;5098188;28;19920;-73
2023/03/26 06:52:32;;;;;;;;;;;15.00;52.80;;;;;;5094528;28;19935;-73
2023/03/26 06:54:58;;;;;;;;;;;15.00;52.80;;;;;;5094871;28;19959;-73
2023/03/26 06:57:23;;;;;;;;;;;15.00;52.80;;;;;;5095720;28;19920;-73
2023/03/26 06:59:49;;;;;;;;;;;15.00;52.80;;;;;;5094408;28;19920;-77
2023/03/26 07:02:14;;;;;;;;;;;15.00;52.90;;;;;;5094303;28;20424;-72
2023/03/26 07:04:43;;;;;;;;;;;15.00;52.80;;;;;;5094696;28;19927;-76
2023/03/26 07:07:09;;;;;;;;;;;15.00;52.80;;;;;;5094629;28;19920;-73
2023/03/26 07:09:34;;;;;;;;;;;15.00;52.80;;;;;;5095339;28;20422;-76
2023/03/26 07:12:00;;;;;;;;;;;15.00;52.70;;;;;;5094258;28;19923;-74
2023/03/26 07:14:29;;;;;;;;;;;15.00;52.80;;;;;;5094491;28;19920;-72
2023/03/26 07:16:56;;;;;;;;;;;15.00;52.80;;;;;;5095573;28;20291;-77
2023/03/26 07:19:21;;;;;;;;;;;15.00;52.80;;;;;;5094039;28;19919;-73
2023/03/26 07:21:47;;;;;;;;;;;15.00;52.70;;;;;;5094299;28;19924;-74
2023/03/26 07:24:13;;;;;;;;;;;15.00;52.70;;;;;;5093787;28;19924;-73
2023/03/26 07:26:45;;;;;;;;;;;15.00;52.70;;;;;;5095294;28;19920;-75
2023/03/26 07:29:14;;;;;;;;;;;15.00;52.70;;;;;;5093890;28;19924;-73
2023/03/26 07:31:44;;;;;;;;;;;15.00;52.70;;;;;;5094144;28;20432;-73
2023/03/26 07:34:18;;;;;;;;;;;15.00;52.70;;;;;;5095013;28;19920;-72
2023/03/26 07:36:50;;;;;;;;;;;15.00;52.70;;;;;;5094879;28;20367;-73
2023/03/26 07:39:36;;;;;;;;;;;15.00;52.70;;;;;;5094010;28;19927;-72
2023/03/26 07:42:10;;;;;;;;;;;15.00;52.70;;;;;;5093458;28;19920;-74
2023/03/26 07:44:43;;;;;;;;;;;15.00;52.60;;;;;;5093525;28;19926;-73
2023/03/26 07:47:21;;;;;;;;;;;15.00;52.60;;;;;;5094882;28;20268;-77
2023/03/26 07:49:46;;;;;;;;;;;15.00;52.60;;;;;;5107095;28;19926;-74
2023/03/26 07:52:12;;;;;;;;;;;15.00;52.60;;;;;;5114179;28;19919;-73
2023/03/26 07:54:37;;;;;;;;;;;15.00;52.60;;;;;;5114047;28;19920;-72
2023/03/26 07:57:05;;;;;;;;;;;15.00;52.60;;;;;;5113688;28;20394;-72
2023/03/26 07:59:35;;;;;;;;;;;15.00;52.60;;;;;;5111293;28;19939;-72
2023/03/26 08:02:12;;;;;;;;;;;15.00;52.60;;;;;;5092632;28;19924;-73
2023/03/26 08:04:49;;;;;;;;;;;15.00;52.60;;;;;;5093155;28;19931;-72
2023/03/26 08:07:36;;;;;;;;;;;15.00;52.50;;;;;;5094580;28;19981;-72
2023/03/26 08:10:21;;;;;;;;;;;15.00;52.60;;;;;;5093113;28;20499;-73
2023/03/26 08:13:07;;;;;;;;;;;15.00;52.50;;;;;;5093183;28;19973;-72
2023/03/26 08:21:06;;;;;;;;;;;15.00;52.40;;;;;;5110228;27;19919;-73
2023/03/26 08:23:39;;;;;;;;;;;15.00;52.40;;;;;;5108464;28;20267;-73
2023/03/26 08:29:05;;;;;;;;;;;15.00;52.40;;;;;;5130726;27;19918;-73
2023/03/26 08:31:33;;;;;;;;;;;15.00;52.40;;;;;;5129518;28;20327;-72
2023/03/26 08:33:59;;;;;;;;;;;15.00;52.40;;;;;;5129417;28;19920;-72
2023/03/26 08:36:25;;;;;;;;;;;15.00;52.40;;;;;;5129668;28;19965;-72
2023/03/26 08:38:51;;;;;;;;;;;15.00;52.40;;;;;;5129305;28;20374;-72
2023/03/26 08:44:19;;;;;;;;;;;15.00;52.30;;;;;;5131156;27;20274;-73
2023/03/26 08:47:04;;;;;;;;;;;15.00;52.30;;;;;;5129118;28;20018;-74
2023/03/26 08:49:50;;;;;;;;;;;15.00;52.30;;;;;;5129502;28;20044;-73
2023/03/26 08:52:35;;;;;;;;;;;15.00;52.20;;;;;;5163781;27;20019;-72
2023/03/26 08:55:10;;;;;;;;;;;15.00;52.30;;;;;;5163997;27;19920;-72
2023/03/26 09:00:25;;;;;;;;;;;15.00;52.20;;;;;;5110302;27;19912;-73
2023/03/26 09:08:32;;;;;;;;;;;15.00;52.10;;;;;;5110484;27;19919;-73
2023/03/26 09:13:52;;;;;;;;;;;15.00;52.10;;;;;;5110067;27;19916;-74
2023/03/26 09:19:18;;;;;;;;;;;15.00;52.10;;;;;;5110311;27;19919;-74
2023/03/26 09:24:41;;;;;;;;;;;15.00;52.00;;;;;;5130622;27;19928;-73
2023/03/26 09:27:08;;;;;;;;;;;15.10;52.00;;;;;;5129368;28;19919;-73
2023/03/26 09:29:53;;;;;;;;;;;15.00;52.00;;;;;;5129814;28;20382;-73
2023/03/26 09:35:09;;;;;;;;;;;15.00;52.00;;;;;;5110242;27;19919;-73
2023/03/26 09:37:46;;;;;;;;;;;15.00;51.90;;;;;;5109191;28;20029;-73
2023/03/26 09:45:43;;;;;;;;;;;15.00;51.90;;;;;;5110310;27;20291;-74
2023/03/26 09:48:19;;;;;;;;;;;15.00;51.80;;;;;;5109174;28;20333;-74
2023/03/26 09:56:30;;;;;;;;;;;15.00;51.80;;;;;;5130788;27;20026;-73
2023/03/26 09:59:16;;;;;;;;;;;15.00;51.70;;;;;;5129738;28;19923;-74
2023/03/26 10:07:47;;;;;;;;;;;14.90;51.60;;;;;;5130863;27;20354;-74
2023/03/26 10:10:22;;;;;;;;;;;15.00;51.60;;;;;;5129449;28;19978;-74
2023/03/26 10:12:51;;;;;;;;;;;15.00;51.60;;;;;;5129419;28;20470;-74
2023/03/26 10:18:06;;;;;;;;;;;15.00;51.60;;;;;;5110329;27;19973;-74
2023/03/26 10:26:09;;;;;;;;;;;14.90;51.40;;;;;;5110187;27;20272;-73
2023/03/26 10:34:12;;;;;;;;;;;15.00;51.30;;;;;;5110193;27;19918;-74
2023/03/26 10:36:45;;;;;;;;;;;15.00;51.20;;;;;;5109238;28;20264;-73
2023/03/26 10:39:30;;;;;;;;;;;15.00;51.20;;;;;;5109497;28;19920;-74
2023/03/26 10:42:10;;;;;;;;;;;15.10;51.20;;;;;;5108970;28;19963;-74
2023/03/26 10:50:19;;;;;;;;;;;15.10;51.10;;;;;;5089831;28;19919;-75
2023/03/26 10:52:47;;;;;;;;;;;15.10;51.00;;;;;;5105781;28;19924;-74
2023/03/26 10:55:21;;;;;;;;;;;15.20;51.00;;;;;;5088581;28;20414;-74
2023/03/26 10:57:50;;;;;;;;;;;15.20;51.00;;;;;;5088885;28;19943;-74
2023/03/26 11:00:23;;;;;;;;;;;15.20;50.90;;;;;;5088350;28;19927;-74
2023/03/26 11:03:09;;;;;;;;;;;15.20;50.80;;;;;;5088686;28;19989;-74
2023/03/26 11:08:43;;;;;;;;;;;15.20;50.70;;;;;;5089912;28;19923;-74
2023/03/26 11:13:56;;;;;;;;;;;15.20;50.60;;;;;;5089931;28;19919;-75
2023/03/26 11:19:09;;;;;;;;;;;15.20;50.60;;;;;;5089966;28;19913;-73
2023/03/26 11:21:40;;;;;;;;;;;15.20;50.50;;;;;;5089832;28;20514;-74
2023/03/26 11:24:25;;;;;;;;;;;15.10;50.50;;;;;;5088598;28;20014;-74
2023/03/26 11:27:03;;;;;;;;;;;15.20;50.60;;;;;;5088638;28;20351;-74
2023/03/26 11:29:35;;;;;;;;;;;15.20;50.60;;;;;;5088680;28;20481;-74
2023/03/26 11:34:55;;;;;;;;;;;15.10;50.60;;;;;;5110343;27;19918;-74
2023/03/26 11:37:27;;;;;;;;;;;15.20;50.60;;;;;;5109438;28;19919;-73
2023/03/26 11:39:55;;;;;;;;;;;15.10;50.50;;;;;;5108908;28;19963;-74
2023/03/26 11:42:22;;;;;;;;;;;15.10;50.50;;;;;;5110161;28;20328;-74
2023/03/26 11:44:52;;;;;;;;;;;15.10;50.60;;;;;;5108870;28;20023;-74
2023/03/26 11:47:19;;;;;;;;;;;15.10;50.50;;;;;;5110179;28;20345;-74
2023/03/26 11:49:45;;;;;;;;;;;15.10;50.50;;;;;;5108632;28;19973;-74
2023/03/26 11:52:11;;;;;;;;;;;15.10;50.50;;;;;;5108884;28;19920;-74
2023/03/26 11:54:37;;;;;;;;;;;15.10;50.50;;;;;;5108685;28;20409;-73
2023/03/26 11:57:08;;;;;;;;;;;15.10;50.50;;;;;;5108550;28;19924;-75
2023/03/26 12:02:23;;;;;;;;;;;15.10;50.60;;;;;;5110167;27;19912;-75
2023/03/26 12:04:50;;;;;;;;;;;15.10;50.50;;;;;;5109019;28;19924;-74
2023/03/26 12:07:19;;;;;;;;;;;15.10;50.50;;;;;;5109198;28;20314;-74
2023/03/26 12:09:50;;;;;;;;;;;15.10;50.50;;;;;;5110131;28;19920;-75
2023/03/26 12:12:15;;;;;;;;;;;15.10;50.50;;;;;;5109103;28;19967;-74
2023/03/26 12:14:41;;;;;;;;;;;15.10;50.50;;;;;;5108760;28;20342;-74
2023/03/26 12:17:10;;;;;;;;;;;15.10;50.50;;;;;;5109064;28;19973;-74
2023/03/26 12:19:40;;;;;;;;;;;15.10;50.40;;;;;;5109903;28;19927;-75
2023/03/26 12:22:25;;;;;;;;;;;15.10;50.40;;;;;;5108637;28;19931;-75
2023/03/26 12:25:00;;;;;;;;;;;15.10;50.40;;;;;;5108824;28;19919;-75
2023/03/26 12:27:29;;;;;;;;;;;15.10;50.30;;;;;;5108912;28;19924;-75
2023/03/26 12:30:15;;;;;;;;;;;15.10;50.30;;;;;;5108459;28;19999;-75
2023/03/26 12:32:43;;;;;;;;;;;15.10;50.30;;;;;;5108245;28;20014;-74
2023/03/26 12:35:28;;;;;;;;;;;15.10;50.30;;;;;;5108199;28;19923;-74
2023/03/26 12:37:54;;;;;;;;;;;15.10;50.30;;;;;;5108648;28;19959;-75
2023/03/26 12:40:26;;;;;;;;;;;15.10;50.30;;;;;;5108199;28;19970;-74
2023/03/26 12:42:53;;;;;;;;;;;15.10;50.20;;;;;;5109625;28;19939;-74
2023/03/26 12:45:19;;;;;;;;;;;15.10;50.10;;;;;;5108534;28;20315;-75
2023/03/26 12:47:45;;;;;;;;;;;15.10;50.10;;;;;;5108438;28;20006;-74
2023/03/26 12:50:11;;;;;;;;;;;15.10;50.10;;;;;;5107953;28;20370;-75
2023/03/26 12:52:47;;;;;;;;;;;15.10;50.20;;;;;;5108108;28;20394;-74
2023/03/26 12:55:35;;;;;;;;;;;15.10;50.20;;;;;;5108336;28;19920;-74
2023/03/26 13:03:42;;;;;;;;;;;15.00;50.00;;;;;;5089928;28;20372;-74
2023/03/26 13:08:59;;;;;;;;;;;15.10;50.20;;;;;;5110099;27;19912;-74
2023/03/26 13:14:13;;;;;;;;;;;15.00;50.00;;;;;;5110319;27;19919;-74
2023/03/26 13:16:46;;;;;;;;;;;15.10;50.00;;;;;;5108931;28;20014;-74
2023/03/26 13:22:06;;;;;;;;;;;15.00;50.00;;;;;;5110155;27;19912;-75
2023/03/26 13:24:47;;;;;;;;;;;15.00;50.00;;;;;;5108961;28;19927;-74
2023/03/26 13:30:02;;;;;;;;;;;15.00;50.00;;;;;;5089858;28;20297;-76
2023/03/26 13:35:21;;;;;;;;;;;15.00;50.00;;;;;;5110196;27;20286;-75
2023/03/26 13:37:54;;;;;;;;;;;15.00;49.90;;;;;;5109093;28;19920;-76
2023/03/26 13:40:39;;;;;;;;;;;15.00;49.90;;;;;;5109222;28;19949;-74
2023/03/26 13:43:14;;;;;;;;;;;15.00;49.90;;;;;;5108707;28;19919;-74
2023/03/26 13:48:24;;;;;;;;;;;15.00;49.80;;;;;;5090163;28;19912;-75
2023/03/26 13:50:55;;;;;;;;;;;15.00;49.80;;;;;;5088761;28;19921;-74
2023/03/26 13:53:24;;;;;;;;;;;15.00;49.80;;;;;;5088632;28;19920;-74
2023/03/26 13:55:52;;;;;;;;;;;15.00;49.80;;;;;;5088495;28;19932;-74
2023/03/26 14:01:04;;;;;;;;;;;15.00;49.60;;;;;;5110147;27;19912;-75
2023/03/26 14:06:26;;;;;;;;;;;15.00;49.70;;;;;;5089895;28;19919;-74
2023/03/26 14:08:56;;;;;;;;;;;15.00;49.70;;;;;;5089920;28;19924;-74
2023/03/26 14:11:30;;;;;;;;;;;15.00;49.70;;;;;;5088470;28;19931;-75
2023/03/26 14:14:02;;;;;;;;;;;15.00;49.70;;;;;;5089848;28;19993;-75
2023/03/26 14:16:49;;;;;;;;;;;14.90;49.60;;;;;;5072002;28;19920;-75
2023/03/26 14:19:35;;;;;;;;;;;15.00;49.70;;;;;;5088748;28;20372;-75
2023/03/26 14:24:52;;;;;;;;;;;14.90;49.60;;;;;;5089965;28;20306;-75
2023/03/26 14:35:43;;;;;;;;;;;14.90;49.40;;;;;;5110435;27;19918;-74
2023/03/26 14:38:18;;;;;;;;;;;14.90;49.40;;;;;;5108726;28;19920;-74
2023/03/26 14:40:51;;;;;;;;;;;14.90;49.40;;;;;;5109148;28;20019;-75
2023/03/26 14:46:34;;;;;;;;;;;15.00;49.40;;;;;;5110417;27;19912;-75
2023/03/26 14:49:08;;;;;;;;;;;14.90;49.40;;;;;;5108877;28;19965;-75
2023/03/26 14:54:19;;;;;;;;;;;14.90;49.40;;;;;;5110660;27;19918;-74
2023/03/26 14:57:05;;;;;;;;;;;14.90;49.30;;;;;;5109301;28;19986;-74
2023/03/26 14:59:50;;;;;;;;;;;14.90;49.30;;;;;;5108865;28;19920;-73
2023/03/26 15:05:19;;;;;;;;;;;14.90;49.30;;;;;;5110200;27;19912;-79
2023/03/26 15:10:48;;;;;;;;;;;14.90;49.20;;;;;;5130640;27;19912;-74
2023/03/26 15:13:34;;;;;;;;;;;14.90;49.20;;;;;;5129698;28;19943;-74
2023/03/26 15:16:19;;;;;;;;;;;14.90;49.20;;;;;;5129431;28;19937;-74
2023/03/26 15:19:05;;;;;;;;;;;14.90;49.20;;;;;;5129186;28;19967;-74
2023/03/26 15:24:31;;;;;;;;;;;14.90;49.10;;;;;;5110334;27;19944;-74
2023/03/26 15:35:40;;;;;;;;;;;14.90;49.00;;;;;;5130888;27;20167;-77
2023/03/26 15:38:27;;;;;;;;;;;14.90;48.90;;;;;;5129895;28;19920;-77
2023/03/26 15:40:59;;;;;;;;;;;14.90;48.90;;;;;;5129320;28;20003;-78
2023/03/26 15:43:27;;;;;;;;;;;14.90;48.80;;;;;;5129715;28;19920;-80
2023/03/26 15:46:11;;;;;;;;;;;14.90;48.80;;;;;;5130013;28;19919;-77
2023/03/26 15:51:37;;;;;;;;;;;14.90;48.70;;;;;;5090017;28;20304;-74
2023/03/26 15:54:07;;;;;;;;;;;14.90;48.60;;;;;;5105709;28;19930;-74
2023/03/26 16:02:02;;;;;;;;;;;14.90;48.50;;;;;;5131156;27;20370;-78
2023/03/26 16:07:27;;;;;;;;;;;14.80;48.40;;;;;;5089906;28;19919;-77
2023/03/26 16:12:45;;;;;;;;;;;14.80;48.30;;;;;;5110343;27;19912;-79
2023/03/26 16:15:28;;;;;;;;;;;14.80;48.20;;;;;;5108996;28;19927;-78
2023/03/26 16:20:53;;;;;;;;;;;14.80;48.20;;;;;;5090376;28;19916;-74
2023/03/26 16:23:23;;;;;;;;;;;14.80;48.20;;;;;;5088843;28;19966;-79
2023/03/26 16:31:26;;;;;;;;;;;14.80;48.00;;;;;;5090772;28;19936;-75
2023/03/26 16:33:55;;;;;;;;;;;14.80;48.10;;;;;;5089106;28;19920;-75
2023/03/26 16:44:33;;;;;;;;;;;14.80;47.90;;;;;;5110473;27;19918;-74
2023/03/26 16:47:01;;;;;;;;;;;14.70;48.00;;;;;;5109141;28;19920;-74
2023/03/26 16:49:39;;;;;;;;;;;14.70;47.90;;;;;;5143530;27;19920;-74
2023/03/26 16:52:18;;;;;;;;;;;14.70;47.80;;;;;;5108827;28;19931;-79
2023/03/26 16:54:51;;;;;;;;;;;14.70;47.90;;;;;;5109137;28;19981;-73
2023/03/26 16:57:38;;;;;;;;;;;14.70;47.90;;;;;;5108766;28;19920;-76
2023/03/26 17:03:05;;;;;;;;;;;14.70;47.90;;;;;;5090970;28;19919;-75
2023/03/26 17:05:51;;;;;;;;;;;14.70;47.90;;;;;;5089536;28;19924;-81
2023/03/26 17:08:37;;;;;;;;;;;14.60;47.80;;;;;;5089423;28;19927;-77
2023/03/26 17:13:50;;;;;;;;;;;14.70;47.80;;;;;;5130775;27;20011;-74
2023/03/26 17:16:28;;;;;;;;;;;14.70;47.70;;;;;;5129841;28;19981;-74
2023/03/26 17:21:44;;;;;;;;;;;14.60;47.70;;;;;;5130926;27;20018;-74
2023/03/26 17:24:16;;;;;;;;;;;14.60;47.70;;;;;;5129421;28;19965;-74
2023/03/26 17:26:47;;;;;;;;;;;14.60;47.80;;;;;;5129984;28;20390;-74
2023/03/26 17:31:58;;;;;;;;;;;14.60;47.70;;;;;;5110301;27;19918;-80
2023/03/26 17:42:59;;;;;;;;;;;14.50;47.60;;;;;;5089967;28;20402;-74
2023/03/26 17:45:29;;;;;;;;;;;14.60;47.60;;;;;;5088534;28;19924;-74
2023/03/26 17:47:57;;;;;;;;;;;14.50;47.60;;;;;;5088791;28;19924;-74
2023/03/26 17:50:26;;;;;;;;;;;14.60;47.60;;;;;;5088424;28;19924;-74
2023/03/26 17:53:11;;;;;;;;;;;14.50;47.60;;;;;;5088514;28;19921;-73
2023/03/26 17:55:38;;;;;;;;;;;14.50;47.50;;;;;;5105133;28;19924;-77
2023/03/26 17:58:04;;;;;;;;;;;14.50;47.50;;;;;;5088422;28;19927;-74
2023/03/26 18:00:33;;;;;;;;;;;14.60;47.50;;;;;;5088388;28;19963;-73
2023/03/26 18:03:00;;;;;;;;;;;14.50;47.50;;;;;;5088449;28;19924;-74